sensor_id;sensor_type;location;lat;lon;timestamp;pressure;altitude;pressure_sealevel;temperature;humidity
50226;BME280;36113;50.742;6.432;2022-12-16T00:01:33;143482.78;;;-6.35;100.00
50226;BME280;36113;50.742;6.432;2022-12-16T00:03:59;143503.78;;;-6.26;100.00
50226;BME280;36113;50.742;6.432;2022-12-16T00:06:26;143489.00;;;-6.32;100.00
50226;BME280;36113;50.742;6.432;2022-12-16T00:08:53;143461.78;;;-6.44;100.00
50226;BME280;36113;50.742;6.432;2022-12-16T00:11:18;143451.94;;;-6.48;100.00
50226;BME280;36113;50.742;6.432;2022-12-16T00:13:44;143430.94;;;-6.56;100.00
50226;BME280;36113;50.742;6.432;2022-12-16T00:16:11;143398.81;;;-6.70;100.00
50226;BME280;36113;50.742;6.432;2022-12-16T00:18:37;143380.25;;;-6.78;100.00
50226;BME280;36113;50.742;6.432;2022-12-16T00:21:03;143365.47;;;-6.84;100.00
50226;BME280;36113;50.742;6.432;2022-12-16T00:23:29;143375.34;;;-6.80;100.00
50226;BME280;36113;50.742;6.432;2022-12-16T00:25:55;143325.94;;;-7.00;100.00
50226;BME280;36113;50.742;6.432;2022-12-16T00:28:20;143383.97;;;-6.76;100.00
50226;BME280;36113;50.742;6.432;2022-12-16T00:30:48;143385.25;;;-6.75;100.00
50226;BME280;36113;50.742;6.432;2022-12-16T00:33:14;143442.00;;;-6.52;100.00
50226;BME280;36113;50.742;6.432;2022-12-16T00:35:39;143460.56;;;-6.44;100.00
50226;BME280;36113;50.742;6.432;2022-12-16T00:38:05;143489.00;;;-6.32;100.00
50226;BME280;36113;50.742;6.432;2022-12-16T00:40:30;143513.69;;;-6.22;100.00
50226;BME280;36113;50.742;6.432;2022-12-16T00:42:55;143454.38;;;-6.47;100.00
50226;BME280;36113;50.742;6.432;2022-12-16T00:45:21;143495.13;;;-6.30;100.00
50226;BME280;36113;50.742;6.432;2022-12-16T00:47:48;143414.88;;;-6.63;100.00
50226;BME280;36113;50.742;6.432;2022-12-16T00:50:14;143524.78;;;-6.17;100.00
50226;BME280;36113;50.742;6.432;2022-12-16T00:52:39;143529.75;;;-6.15;100.00
50226;BME280;36113;50.742;6.432;2022-12-16T00:55:05;143484.00;;;-6.34;100.00
50226;BME280;36113;50.742;6.432;2022-12-16T00:57:32;143482.78;;;-6.35;100.00
50226;BME280;36113;50.742;6.432;2022-12-16T00:59:57;143505.06;;;-6.26;100.00
50226;BME280;36113;50.742;6.432;2022-12-16T01:02:23;143485.28;;;-6.34;100.00
50226;BME280;36113;50.742;6.432;2022-12-16T01:04:48;143558.13;;;-6.04;100.00
50226;BME280;36113;50.742;6.432;2022-12-16T01:07:13;143501.34;;;-6.27;100.00
50226;BME280;36113;50.742;6.432;2022-12-16T01:09:38;143603.81;;;-5.85;100.00
50226;BME280;36113;50.742;6.432;2022-12-16T01:12:04;143617.44;;;-5.79;100.00
50226;BME280;36113;50.742;6.432;2022-12-16T01:14:30;143639.69;;;-5.70;100.00
50226;BME280;36113;50.742;6.432;2022-12-16T01:16:55;143611.25;;;-5.81;100.00
50226;BME280;36113;50.742;6.432;2022-12-16T01:19:21;143650.81;;;-5.65;100.00
50226;BME280;36113;50.742;6.432;2022-12-16T01:21:46;143671.81;;;-5.56;100.00
50226;BME280;36113;50.742;6.432;2022-12-16T01:24:14;143676.75;;;-5.54;100.00
50226;BME280;36113;50.742;6.432;2022-12-16T01:26:39;143675.53;;;-5.55;100.00
50226;BME280;36113;50.742;6.432;2022-12-16T01:29:05;143678.00;;;-5.54;100.00
50226;BME280;36113;50.742;6.432;2022-12-16T01:31:31;143587.78;;;-5.91;100.00
50226;BME280;36113;50.742;6.432;2022-12-16T01:33:56;143673.06;;;-5.56;100.00
50226;BME280;36113;50.742;6.432;2022-12-16T01:36:25;143679.25;;;-5.53;100.00
50226;BME280;36113;50.742;6.432;2022-12-16T01:38:50;143686.63;;;-5.50;100.00
50226;BME280;36113;50.742;6.432;2022-12-16T01:41:16;143669.34;;;-5.57;100.00
50226;BME280;36113;50.742;6.432;2022-12-16T01:43:43;143679.25;;;-5.53;100.00
50226;BME280;36113;50.742;6.432;2022-12-16T01:48:50;143692.84;;;-5.48;100.00
50226;BME280;36113;50.742;6.432;2022-12-16T01:51:20;143690.34;;;-5.49;100.00
50226;BME280;36113;50.742;6.432;2022-12-16T01:53:52;143696.56;;;-5.46;100.00
50226;BME280;36113;50.742;6.432;2022-12-16T01:56:20;143692.84;;;-5.48;100.00
50226;BME280;36113;50.742;6.432;2022-12-16T01:58:48;143652.03;;;-5.65;100.00
50226;BME280;36113;50.742;6.432;2022-12-16T02:01:14;143685.41;;;-5.51;100.00
50226;BME280;36113;50.742;6.432;2022-12-16T02:03:41;143674.28;;;-5.55;100.00
50226;BME280;36113;50.742;6.432;2022-12-16T02:06:07;143654.53;;;-5.63;100.00
50226;BME280;36113;50.742;6.432;2022-12-16T02:08:32;143644.63;;;-5.68;100.00
50226;BME280;36113;50.742;6.432;2022-12-16T02:33:39;143701.50;;;-5.44;100.00
50226;BME280;36113;50.742;6.432;2022-12-16T02:36:31;143729.94;;;-5.32;100.00
50226;BME280;36113;50.742;6.432;2022-12-16T02:44:12;143738.59;;;-5.29;100.00
50226;BME280;36113;50.742;6.432;2022-12-16T02:46:43;143731.16;;;-5.32;100.00
50226;BME280;36113;50.742;6.432;2022-12-16T02:51:40;143695.34;;;-5.47;100.00
50226;BME280;36113;50.742;6.432;2022-12-16T02:54:06;143684.19;;;-5.51;100.00
50226;BME280;36113;50.742;6.432;2022-12-16T02:56:54;143643.38;;;-5.68;100.00
50226;BME280;36113;50.742;6.432;2022-12-16T03:05:33;143624.88;;;-5.76;100.00
50226;BME280;36113;50.742;6.432;2022-12-16T03:08:06;143571.78;;;-5.98;100.00
50226;BME280;36113;50.742;6.432;2022-12-16T03:10:38;143623.59;;;-5.76;100.00
50226;BME280;36113;50.742;6.432;2022-12-16T03:13:06;143602.59;;;-5.85;100.00
50226;BME280;36113;50.742;6.432;2022-12-16T03:15:34;143582.81;;;-5.93;100.00
50226;BME280;36113;50.742;6.432;2022-12-16T03:18:01;143587.78;;;-5.91;100.00
50226;BME280;36113;50.742;6.432;2022-12-16T03:20:39;143616.19;;;-5.79;100.00
50226;BME280;36113;50.742;6.432;2022-12-16T03:23:10;143628.53;;;-5.74;100.00
50226;BME280;36113;50.742;6.432;2022-12-16T03:25:40;143610.03;;;-5.82;100.00
50226;BME280;36113;50.742;6.432;2022-12-16T03:31:02;143603.81;;;-5.85;100.00
50226;BME280;36113;50.742;6.432;2022-12-16T03:33:33;143580.38;;;-5.94;100.00
50226;BME280;36113;50.742;6.432;2022-12-16T03:36:12;143579.09;;;-5.95;100.00
50226;BME280;36113;50.742;6.432;2022-12-16T03:38:40;143560.63;;;-6.03;100.00
50226;BME280;36113;50.742;6.432;2022-12-16T03:41:06;143543.34;;;-6.10;100.00
50226;BME280;36113;50.742;6.432;2022-12-16T03:43:35;143552.00;;;-6.06;100.00
50226;BME280;36113;50.742;6.432;2022-12-16T03:46:03;143549.50;;;-6.07;100.00
50226;BME280;36113;50.742;6.432;2022-12-16T03:48:30;143529.75;;;-6.15;100.00
50226;BME280;36113;50.742;6.432;2022-12-16T03:50:55;143545.78;;;-6.09;100.00
50226;BME280;36113;50.742;6.432;2022-12-16T03:53:21;143591.47;;;-5.90;100.00
50226;BME280;36113;50.742;6.432;2022-12-16T03:55:50;143589.00;;;-5.91;100.00
50226;BME280;36113;50.742;6.432;2022-12-16T03:58:15;143591.47;;;-5.90;100.00
50226;BME280;36113;50.742;6.432;2022-12-16T04:00:41;143564.34;;;-6.01;100.00
50226;BME280;36113;50.742;6.432;2022-12-16T04:03:06;143495.13;;;-6.30;100.00
50226;BME280;36113;50.742;6.432;2022-12-16T04:05:31;143540.84;;;-6.11;100.00
50226;BME280;36113;50.742;6.432;2022-12-16T04:07:57;143547.06;;;-6.08;100.00
50226;BME280;36113;50.742;6.432;2022-12-16T04:10:22;143539.63;;;-6.11;100.00
50226;BME280;36113;50.742;6.432;2022-12-16T04:13:08;143545.78;;;-6.09;100.00
50226;BME280;36113;50.742;6.432;2022-12-16T04:15:53;143544.56;;;-6.09;100.00
50226;BME280;36113;50.742;6.432;2022-12-16T04:18:39;143547.06;;;-6.08;100.00
50226;BME280;36113;50.742;6.432;2022-12-16T04:21:23;143558.13;;;-6.04;100.00
50226;BME280;36113;50.742;6.432;2022-12-16T04:24:12;143529.75;;;-6.15;100.00
50226;BME280;36113;50.742;6.432;2022-12-16T04:26:48;143568.06;;;-5.99;100.00
50226;BME280;36113;50.742;6.432;2022-12-16T04:29:32;143512.44;;;-6.23;100.00
50226;BME280;36113;50.742;6.432;2022-12-16T04:31:58;143558.13;;;-6.04;100.00
50226;BME280;36113;50.742;6.432;2022-12-16T04:34:24;143561.84;;;-6.02;100.00
50226;BME280;36113;50.742;6.432;2022-12-16T04:36:50;143511.22;;;-6.23;100.00
50226;BME280;36113;50.742;6.432;2022-12-16T04:39:34;143558.13;;;-6.04;100.00
50226;BME280;36113;50.742;6.432;2022-12-16T04:42:18;143580.38;;;-5.94;100.00
50226;BME280;36113;50.742;6.432;2022-12-16T04:45:02;143579.09;;;-5.95;100.00
50226;BME280;36113;50.742;6.432;2022-12-16T04:47:46;143549.50;;;-6.07;100.00
50226;BME280;36113;50.742;6.432;2022-12-16T04:50:30;143518.63;;;-6.20;100.00
50226;BME280;36113;50.742;6.432;2022-12-16T04:53:13;143544.56;;;-6.09;100.00
50226;BME280;36113;50.742;6.432;2022-12-16T04:55:57;143548.28;;;-6.08;100.00
50226;BME280;36113;50.742;6.432;2022-12-16T04:58:41;143582.81;;;-5.93;100.00
50226;BME280;36113;50.742;6.432;2022-12-16T05:01:25;143590.22;;;-5.90;100.00
50226;BME280;36113;50.742;6.432;2022-12-16T05:04:09;143592.72;;;-5.89;100.00
50226;BME280;36113;50.742;6.432;2022-12-16T05:06:53;143528.50;;;-6.16;100.00
50226;BME280;36113;50.742;6.432;2022-12-16T05:09:36;143595.16;;;-5.88;100.00
50226;BME280;36113;50.742;6.432;2022-12-16T05:12:20;143581.59;;;-5.94;100.00
50226;BME280;36113;50.742;6.432;2022-12-16T05:15:04;143618.66;;;-5.78;100.00
50226;BME280;36113;50.742;6.432;2022-12-16T05:17:48;143618.66;;;-5.78;100.00
50226;BME280;36113;50.742;6.432;2022-12-16T05:20:32;143592.72;;;-5.89;100.00
50226;BME280;36113;50.742;6.432;2022-12-16T05:23:16;143589.00;;;-5.91;100.00
50226;BME280;36113;50.742;6.432;2022-12-16T05:26:00;143522.34;;;-6.18;100.00
50226;BME280;36113;50.742;6.432;2022-12-16T05:28:44;143566.78;;;-6.00;100.00
50226;BME280;36113;50.742;6.432;2022-12-16T05:31:28;143552.00;;;-6.06;100.00
50226;BME280;36113;50.742;6.432;2022-12-16T05:34:12;143549.50;;;-6.07;100.00
50226;BME280;36113;50.742;6.432;2022-12-16T05:36:56;143561.84;;;-6.02;100.00
50226;BME280;36113;50.742;6.432;2022-12-16T05:39:39;143561.84;;;-6.02;100.00
50226;BME280;36113;50.742;6.432;2022-12-16T05:42:23;143564.34;;;-6.01;100.00
50226;BME280;36113;50.742;6.432;2022-12-16T05:45:07;143575.47;;;-5.96;100.00
50226;BME280;36113;50.742;6.432;2022-12-16T05:47:51;143513.69;;;-6.22;100.00
50226;BME280;36113;50.742;6.432;2022-12-16T05:50:35;143548.28;;;-6.08;100.00
50226;BME280;36113;50.742;6.432;2022-12-16T05:53:19;143553.22;;;-6.06;100.00
50226;BME280;36113;50.742;6.432;2022-12-16T05:56:03;143539.63;;;-6.11;100.00
50226;BME280;36113;50.742;6.432;2022-12-16T05:58:47;143509.97;;;-6.24;100.00
50226;BME280;36113;50.742;6.432;2022-12-16T06:01:34;143528.50;;;-6.16;100.00
50226;BME280;36113;50.742;6.432;2022-12-16T06:04:18;143490.22;;;-6.32;100.00
50226;BME280;36113;50.742;6.432;2022-12-16T06:07:02;143552.00;;;-6.06;100.00
50226;BME280;36113;50.742;6.432;2022-12-16T06:09:46;143531.00;;;-6.15;100.00
50226;BME280;36113;50.742;6.432;2022-12-16T06:12:30;143493.91;;;-6.30;100.00
50226;BME280;36113;50.742;6.432;2022-12-16T06:15:14;143533.44;;;-6.14;100.00
50226;BME280;36113;50.742;6.432;2022-12-16T06:17:58;143498.84;;;-6.28;100.00
50226;BME280;36113;50.742;6.432;2022-12-16T06:20:42;143545.78;;;-6.09;100.00
50226;BME280;36113;50.742;6.432;2022-12-16T06:23:26;143490.22;;;-6.32;100.00
50226;BME280;36113;50.742;6.432;2022-12-16T06:26:10;143549.50;;;-6.07;100.00
50226;BME280;36113;50.742;6.432;2022-12-16T06:28:54;143533.44;;;-6.14;100.00
50226;BME280;36113;50.742;6.432;2022-12-16T06:31:38;143534.69;;;-6.13;100.00
50226;BME280;36113;50.742;6.432;2022-12-16T06:34:22;143475.38;;;-6.38;100.00
50226;BME280;36113;50.742;6.432;2022-12-16T06:37:06;143526.06;;;-6.17;100.00
50226;BME280;36113;50.742;6.432;2022-12-16T06:39:49;143523.56;;;-6.18;100.00
50226;BME280;36113;50.742;6.432;2022-12-16T06:42:33;143517.41;;;-6.20;100.00
50226;BME280;36113;50.742;6.432;2022-12-16T06:45:17;143548.28;;;-6.08;100.00
50226;BME280;36113;50.742;6.432;2022-12-16T06:48:01;143580.38;;;-5.94;100.00
50226;BME280;36113;50.742;6.432;2022-12-16T06:50:45;143598.88;;;-5.87;100.00
50226;BME280;36113;50.742;6.432;2022-12-16T06:53:29;143621.16;;;-5.77;100.00
50226;BME280;36113;50.742;6.432;2022-12-16T06:56:13;143639.69;;;-5.70;100.00
50226;BME280;36113;50.742;6.432;2022-12-16T06:58:57;143629.81;;;-5.74;100.00
50226;BME280;36113;50.742;6.432;2022-12-16T07:01:41;143612.50;;;-5.81;100.00
50226;BME280;36113;50.742;6.432;2022-12-16T07:04:25;143606.31;;;-5.84;100.00
50226;BME280;36113;50.742;6.432;2022-12-16T07:07:20;143559.41;;;-6.03;100.00
50226;BME280;36113;50.742;6.432;2022-12-16T07:10:06;143550.75;;;-6.07;100.00
50226;BME280;36113;50.742;6.432;2022-12-16T07:12:51;143508.72;;;-6.24;100.00
50226;BME280;36113;50.742;6.432;2022-12-16T07:15:35;143500.06;;;-6.28;100.00
50226;BME280;36113;50.742;6.432;2022-12-16T07:18:19;143486.50;;;-6.33;100.00
50226;BME280;36113;50.742;6.432;2022-12-16T07:21:03;143474.13;;;-6.38;100.00
50226;BME280;36113;50.742;6.432;2022-12-16T07:23:47;143460.56;;;-6.44;100.00
50226;BME280;36113;50.742;6.432;2022-12-16T07:26:31;143482.78;;;-6.35;100.00
50226;BME280;36113;50.742;6.432;2022-12-16T07:29:15;143427.22;;;-6.58;100.00
50226;BME280;36113;50.742;6.432;2022-12-16T07:31:59;143474.13;;;-6.38;100.00
50226;BME280;36113;50.742;6.432;2022-12-16T07:34:43;143408.66;;;-6.66;100.00
50226;BME280;36113;50.742;6.432;2022-12-16T07:37:27;143451.94;;;-6.48;100.00
50226;BME280;36113;50.742;6.432;2022-12-16T07:40:27;143439.56;;;-6.53;100.00
50226;BME280;36113;50.742;6.432;2022-12-16T07:43:19;143396.31;;;-6.71;100.00
50226;BME280;36113;50.742;6.432;2022-12-16T07:46:03;143448.22;;;-6.49;100.00
50226;BME280;36113;50.742;6.432;2022-12-16T07:48:47;143477.84;;;-6.37;100.00
50226;BME280;36113;50.742;6.432;2022-12-16T07:51:31;143492.69;;;-6.31;100.00
50226;BME280;36113;50.742;6.432;2022-12-16T07:54:15;143479.06;;;-6.36;100.00
50226;BME280;36113;50.742;6.432;2022-12-16T07:56:59;143554.44;;;-6.05;100.00
50226;BME280;36113;50.742;6.432;2022-12-16T07:59:57;143580.38;;;-5.94;100.00
50226;BME280;36113;50.742;6.432;2022-12-16T08:02:41;143590.22;;;-5.90;100.00
50226;BME280;36113;50.742;6.432;2022-12-16T08:05:25;143610.03;;;-5.82;100.00
50226;BME280;36113;50.742;6.432;2022-12-16T08:08:09;143618.66;;;-5.78;100.00
50226;BME280;36113;50.742;6.432;2022-12-16T08:10:53;143623.59;;;-5.76;100.00
50226;BME280;36113;50.742;6.432;2022-12-16T08:13:36;143637.22;;;-5.71;100.00
50226;BME280;36113;50.742;6.432;2022-12-16T08:16:20;143648.31;;;-5.66;100.00
50226;BME280;36113;50.742;6.432;2022-12-16T08:19:04;143669.34;;;-5.57;100.00
50226;BME280;36113;50.742;6.432;2022-12-16T08:21:48;143686.63;;;-5.50;100.00
50226;BME280;36113;50.742;6.432;2022-12-16T08:24:32;143708.91;;;-5.41;100.00
50226;BME280;36113;50.742;6.432;2022-12-16T08:27:16;143685.41;;;-5.51;100.00
50226;BME280;36113;50.742;6.432;2022-12-16T08:30:00;143731.16;;;-5.32;100.00
50226;BME280;36113;50.742;6.432;2022-12-16T08:32:44;143757.13;;;-5.21;100.00
50226;BME280;36113;50.742;6.432;2022-12-16T08:35:28;143720.06;;;-5.36;100.00
50226;BME280;36113;50.742;6.432;2022-12-16T08:38:12;143779.41;;;-5.12;100.00
50226;BME280;36113;50.742;6.432;2022-12-16T08:40:56;143810.28;;;-4.99;100.00
50226;BME280;36113;50.742;6.432;2022-12-16T08:43:40;143812.78;;;-4.98;100.00
50226;BME280;36113;50.742;6.432;2022-12-16T08:46:24;143793.00;;;-5.06;100.00
50226;BME280;36113;50.742;6.432;2022-12-16T08:49:07;143816.50;;;-4.96;100.00
50226;BME280;36113;50.742;6.432;2022-12-16T08:51:51;143870.94;;;-4.74;100.00
50226;BME280;36113;50.742;6.432;2022-12-16T08:54:35;143883.31;;;-4.68;100.00
50226;BME280;36113;50.742;6.432;2022-12-16T08:57:19;143905.56;;;-4.59;100.00
50226;BME280;36113;50.742;6.432;2022-12-16T09:00:04;143891.94;;;-4.65;100.00
50226;BME280;36113;50.742;6.432;2022-12-16T09:02:56;143925.34;;;-4.51;100.00
50226;BME280;36113;50.742;6.432;2022-12-16T09:05:40;143952.59;;;-4.40;100.00
50226;BME280;36113;50.742;6.432;2022-12-16T09:08:24;143999.63;;;-4.20;100.00
50226;BME280;36113;50.742;6.432;2022-12-16T09:11:09;144012.00;;;-4.15;100.00
50226;BME280;36113;50.742;6.432;2022-12-16T09:13:55;144030.59;;;-4.07;100.00
50226;BME280;36113;50.742;6.432;2022-12-16T09:16:40;144033.03;;;-4.06;100.00
50226;BME280;36113;50.742;6.432;2022-12-16T09:19:24;144066.44;;;-3.92;100.00
50226;BME280;36113;50.742;6.432;2022-12-16T09:22:08;144076.38;;;-3.88;100.00
50226;BME280;36113;50.742;6.432;2022-12-16T09:24:51;144044.19;;;-4.02;100.00
50226;BME280;36113;50.742;6.432;2022-12-16T09:27:35;144081.31;;;-3.86;100.00
50226;BME280;36113;50.742;6.432;2022-12-16T09:30:19;144113.53;;;-3.73;100.00
50226;BME280;36113;50.742;6.432;2022-12-16T09:33:03;144149.41;;;-3.58;100.00
50226;BME280;36113;50.742;6.432;2022-12-16T09:35:47;144106.09;;;-3.76;100.00
50226;BME280;36113;50.742;6.432;2022-12-16T09:38:31;144113.53;;;-3.73;100.00
50226;BME280;36113;50.742;6.432;2022-12-16T09:48:05;144108.53;;;-3.75;100.00
50226;BME280;36113;50.742;6.432;2022-12-16T09:50:56;144092.44;;;-3.82;100.00
50226;BME280;36113;50.742;6.432;2022-12-16T09:53:41;144141.97;;;-3.61;100.00
50226;BME280;36113;50.742;6.432;2022-12-16T09:56:32;144153.13;;;-3.56;100.00
50226;BME280;36113;50.742;6.432;2022-12-16T09:59:27;144191.50;;;-3.41;100.00
50226;BME280;36113;50.742;6.432;2022-12-16T10:02:14;144189.06;;;-3.42;100.00
50226;BME280;36113;50.742;6.432;2022-12-16T10:04:59;144191.50;;;-3.41;100.00
50226;BME280;36113;50.742;6.432;2022-12-16T10:07:51;144203.91;;;-3.35;100.00
50226;BME280;36113;50.742;6.432;2022-12-16T10:13:53;144201.44;;;-3.36;100.00
50226;BME280;36113;50.742;6.432;2022-12-16T10:22:55;144210.13;;;-3.33;100.00
50226;BME280;36113;50.742;6.432;2022-12-16T10:25:55;144257.16;;;-3.13;100.00
50226;BME280;36113;50.742;6.432;2022-12-16T10:28:47;144275.78;;;-3.06;100.00
50226;BME280;36113;50.742;6.432;2022-12-16T10:31:33;144278.22;;;-3.05;100.00
50226;BME280;36113;50.742;6.432;2022-12-16T10:34:19;144317.91;;;-2.88;100.00
50226;BME280;36113;50.742;6.432;2022-12-16T10:37:04;144316.66;;;-2.89;100.00
50226;BME280;36113;50.742;6.432;2022-12-16T10:39:57;144363.75;;;-2.69;100.00
50226;BME280;36113;50.742;6.432;2022-12-16T10:43:00;144384.81;;;-2.60;100.00
50226;BME280;36113;50.742;6.432;2022-12-16T10:45:48;144399.72;;;-2.54;100.00
50226;BME280;36113;50.742;6.432;2022-12-16T10:48:33;144417.06;;;-2.47;100.00
50226;BME280;36113;50.742;6.432;2022-12-16T10:51:19;144450.53;;;-2.33;100.00
50226;BME280;36113;50.742;6.432;2022-12-16T10:57:37;144464.13;;;-2.28;100.00
50226;BME280;36113;50.742;6.432;2022-12-16T11:00:47;144457.97;;;-2.30;100.00
50226;BME280;36113;50.742;6.432;2022-12-16T11:03:34;144465.38;;;-2.27;100.00
50226;BME280;36113;50.742;6.432;2022-12-16T11:06:25;144474.09;;;-2.23;100.00
50226;BME280;36113;50.742;6.432;2022-12-16T11:09:24;144492.66;;;-2.16;100.00
50226;BME280;36113;50.742;6.432;2022-12-16T11:14:56;144460.41;;;-2.29;100.00
50226;BME280;36113;50.742;6.432;2022-12-16T11:18:00;144512.50;;;-2.08;100.00
50226;BME280;36113;50.742;6.432;2022-12-16T11:20:45;144537.31;;;-1.97;100.00
50226;BME280;36113;50.742;6.432;2022-12-16T11:23:29;144474.09;;;-2.23;100.00
50226;BME280;36113;50.742;6.432;2022-12-16T11:26:18;144531.09;;;-2.00;100.00
50226;BME280;36113;50.742;6.432;2022-12-16T11:29:03;144533.59;;;-1.99;100.00
50226;BME280;36113;50.742;6.432;2022-12-16T11:34:44;144506.28;;;-2.10;100.00
50226;BME280;36113;50.742;6.432;2022-12-16T11:37:32;144455.47;;;-2.31;100.00
50226;BME280;36113;50.742;6.432;2022-12-16T11:40:17;144487.72;;;-2.18;100.00
50226;BME280;36113;50.742;6.432;2022-12-16T11:43:04;144418.28;;;-2.47;100.00
50226;BME280;36113;50.742;6.432;2022-12-16T11:45:50;144488.94;;;-2.17;100.00
50226;BME280;36113;50.742;6.432;2022-12-16T11:48:42;144449.28;;;-2.34;100.00
50226;BME280;36113;50.742;6.432;2022-12-16T11:51:29;144405.88;;;-2.52;100.00
50226;BME280;36113;50.742;6.432;2022-12-16T11:54:32;144415.78;;;-2.48;100.00
50226;BME280;36113;50.742;6.432;2022-12-16T11:57:24;144350.13;;;-2.75;100.00
50226;BME280;36113;50.742;6.432;2022-12-16T12:00:14;144381.09;;;-2.62;100.00
50226;BME280;36113;50.742;6.432;2022-12-16T12:03:06;144374.91;;;-2.65;100.00
50226;BME280;36113;50.742;6.432;2022-12-16T12:09:00;144363.75;;;-2.69;100.00
50226;BME280;36113;50.742;6.432;2022-12-16T12:12:21;144382.31;;;-2.61;100.00
50226;BME280;36113;50.742;6.432;2022-12-16T12:21:28;144443.06;;;-2.36;100.00
50226;BME280;36113;50.742;6.432;2022-12-16T12:27:20;144452.97;;;-2.32;100.00
50226;BME280;36113;50.742;6.432;2022-12-16T12:30:10;144452.97;;;-2.32;100.00
50226;BME280;36113;50.742;6.432;2022-12-16T12:38:51;144469.09;;;-2.26;100.00
50226;BME280;36113;50.742;6.432;2022-12-16T12:45:01;144448.03;;;-2.34;100.00
50226;BME280;36113;50.742;6.432;2022-12-16T12:50:57;144409.59;;;-2.50;100.00
50226;BME280;36113;50.742;6.432;2022-12-16T12:56:52;144441.84;;;-2.37;100.00
50226;BME280;36113;50.742;6.432;2022-12-16T13:02:49;144435.63;;;-2.39;100.00
50226;BME280;36113;50.742;6.432;2022-12-16T13:05:38;144456.69;;;-2.31;100.00
50226;BME280;36113;50.742;6.432;2022-12-16T13:08:42;144465.38;;;-2.27;100.00
50226;BME280;36113;50.742;6.432;2022-12-16T13:11:26;144490.16;;;-2.17;100.00
50226;BME280;36113;50.742;6.432;2022-12-16T13:17:13;144547.22;;;-1.93;100.00
50226;BME280;36113;50.742;6.432;2022-12-16T13:19:57;144558.41;;;-1.89;100.00
50226;BME280;36113;50.742;6.432;2022-12-16T13:22:43;144555.91;;;-1.90;100.00
50226;BME280;36113;50.742;6.432;2022-12-16T13:28:35;144610.47;;;-1.67;100.00
50226;BME280;36113;50.742;6.432;2022-12-16T13:31:20;144588.16;;;-1.76;100.00
50226;BME280;36113;50.742;6.432;2022-12-16T13:37:02;144678.72;;;-1.39;100.00
50226;BME280;36113;50.742;6.432;2022-12-16T13:40:22;144636.53;;;-1.56;100.00
50226;BME280;36113;50.742;6.432;2022-12-16T13:43:41;144661.34;;;-1.46;100.00
50226;BME280;36113;50.742;6.432;2022-12-16T13:46:54;144667.53;;;-1.43;100.00
50226;BME280;36113;50.742;6.432;2022-12-16T13:52:34;144684.91;;;-1.36;100.00
50226;BME280;36113;50.742;6.432;2022-12-16T13:55:27;144709.72;;;-1.26;100.00
50226;BME280;36113;50.742;6.432;2022-12-16T13:58:33;144688.63;;;-1.35;100.00
50226;BME280;36113;50.742;6.432;2022-12-16T14:01:26;144701.03;;;-1.29;100.00
50226;BME280;36113;50.742;6.432;2022-12-16T14:04:20;144706.00;;;-1.27;100.00
50226;BME280;36113;50.742;6.432;2022-12-16T14:07:08;144715.94;;;-1.23;100.00
50226;BME280;36113;50.742;6.432;2022-12-16T14:09:52;144709.72;;;-1.26;100.00
50226;BME280;36113;50.742;6.432;2022-12-16T14:12:57;144719.66;;;-1.22;100.00
50226;BME280;36113;50.742;6.432;2022-12-16T14:18:49;144697.31;;;-1.31;100.00
50226;BME280;36113;50.742;6.432;2022-12-16T14:25:06;144692.34;;;-1.33;100.00
50226;BME280;36113;50.742;6.432;2022-12-16T14:27:57;144677.50;;;-1.39;100.00
50226;BME280;36113;50.742;6.432;2022-12-16T14:30:41;144656.34;;;-1.48;100.00
50226;BME280;36113;50.742;6.432;2022-12-16T14:33:27;144611.75;;;-1.66;100.00
50226;BME280;36113;50.742;6.432;2022-12-16T14:39:22;144661.34;;;-1.46;100.00
50226;BME280;36113;50.742;6.432;2022-12-16T14:42:27;144662.59;;;-1.45;100.00
50226;BME280;36113;50.742;6.432;2022-12-16T14:51:25;144636.53;;;-1.56;100.00
50226;BME280;36113;50.742;6.432;2022-12-16T14:57:17;144658.84;;;-1.47;100.00
50226;BME280;36113;50.742;6.432;2022-12-16T15:02:54;144641.50;;;-1.54;100.00
50226;BME280;36113;50.742;6.432;2022-12-16T15:05:39;144651.41;;;-1.50;100.00
50226;BME280;36113;50.742;6.432;2022-12-16T15:08:25;144639.00;;;-1.55;100.00
50226;BME280;36113;50.742;6.432;2022-12-16T15:11:12;144652.69;;;-1.49;100.00
50226;BME280;36113;50.742;6.432;2022-12-16T15:14:01;144648.94;;;-1.51;100.00
50226;BME280;36113;50.742;6.432;2022-12-16T15:16:47;144653.91;;;-1.49;100.00
50226;BME280;36113;50.742;6.432;2022-12-16T15:19:45;144640.28;;;-1.55;100.00
50226;BME280;36113;50.742;6.432;2022-12-16T15:22:30;144626.59;;;-1.60;100.00
50226;BME280;36113;50.742;6.432;2022-12-16T15:25:22;144616.69;;;-1.64;100.00
50226;BME280;36113;50.742;6.432;2022-12-16T15:28:26;144606.72;;;-1.68;100.00
50226;BME280;36113;50.742;6.432;2022-12-16T15:31:29;144598.06;;;-1.72;100.00
50226;BME280;36113;50.742;6.432;2022-12-16T15:34:38;144600.56;;;-1.71;100.00
50226;BME280;36113;50.742;6.432;2022-12-16T15:37:38;144553.44;;;-1.91;100.00
50226;BME280;36113;50.742;6.432;2022-12-16T15:40:30;144598.06;;;-1.72;100.00
50226;BME280;36113;50.742;6.432;2022-12-16T15:43:21;144594.34;;;-1.74;100.00
50226;BME280;36113;50.742;6.432;2022-12-16T15:46:15;144585.66;;;-1.77;100.00
50226;BME280;36113;50.742;6.432;2022-12-16T15:48:59;144588.16;;;-1.76;100.00
50226;BME280;36113;50.742;6.432;2022-12-16T15:51:47;144570.78;;;-1.83;100.00
50226;BME280;36113;50.742;6.432;2022-12-16T15:54:32;144580.69;;;-1.79;100.00
50226;BME280;36113;50.742;6.432;2022-12-16T15:57:33;144593.09;;;-1.74;100.00
50226;BME280;36113;50.742;6.432;2022-12-16T16:00:28;144539.75;;;-1.96;100.00
50226;BME280;36113;50.742;6.432;2022-12-16T16:03:27;144568.31;;;-1.84;100.00
50226;BME280;36113;50.742;6.432;2022-12-16T16:06:21;144542.28;;;-1.95;100.00
50226;BME280;36113;50.742;6.432;2022-12-16T16:09:33;144541.03;;;-1.96;100.00